createdAt,value
2023-05-09T00:00:26.198Z,52.16
2023-05-09T00:08:00.025Z,52.48
2023-05-09T00:15:35.766Z,52.75
2023-05-09T00:23:09.587Z,53.20
2023-05-09T00:30:45.148Z,53.89
2023-05-09T00:38:19.104Z,54.05
2023-05-09T00:45:54.683Z,54.47
2023-05-09T00:53:29.103Z,54.89
2023-05-09T01:01:04.681Z,55.34
2023-05-09T01:08:46.221Z,55.37
2023-05-09T01:16:28.919Z,55.77
2023-05-09T01:24:27.052Z,55.78
2023-05-09T01:32:06.092Z,55.59
2023-05-09T01:39:42.632Z,55.57
2023-05-09T01:47:20.987Z,55.84
2023-05-09T01:55:14.263Z,56.08
2023-05-09T02:02:49.820Z,56.26
2023-05-09T02:10:25.489Z,56.72
2023-05-09T02:18:00.764Z,56.94
2023-05-09T02:25:35.751Z,56.43
2023-05-09T02:33:13.764Z,56.25
2023-05-09T02:40:50.951Z,56.00
2023-05-09T02:48:27.799Z,56.55
2023-05-09T02:56:01.715Z,56.34
2023-05-09T03:03:37.612Z,56.44
2023-05-09T03:11:11.647Z,57.04
2023-05-09T03:18:47.068Z,57.12
2023-05-09T03:26:21.104Z,57.08
2023-05-09T03:33:59.451Z,57.39
2023-05-09T03:41:33.320Z,57.48
2023-05-09T03:49:08.872Z,57.62
2023-05-09T04:04:35.755Z,57.42
2023-05-09T04:12:09.973Z,57.16
2023-05-09T04:19:45.206Z,56.66
2023-05-09T04:27:19.291Z,56.54
2023-05-09T04:34:54.649Z,56.88
2023-05-09T04:42:40.100Z,56.39
2023-05-09T04:58:09.196Z,56.40
2023-05-09T05:05:44.405Z,55.41
2023-05-09T05:13:18.654Z,55.35
2023-05-09T05:20:53.951Z,54.66
2023-05-09T05:28:27.876Z,53.93
2023-05-09T05:36:03.216Z,53.24
2023-05-09T05:43:37.106Z,52.47
2023-05-09T05:51:12.470Z,51.96
2023-05-09T05:58:46.320Z,50.99
2023-05-09T06:06:21.935Z,49.75
2023-05-09T06:13:56.562Z,48.15
2023-05-09T06:21:34.313Z,48.56
2023-05-09T06:29:08.345Z,46.11
2023-05-09T06:36:43.693Z,46.20
2023-05-09T06:44:17.600Z,46.08
2023-05-09T06:51:52.903Z,44.80
2023-05-09T06:59:27.041Z,43.68
2023-05-09T07:07:08.860Z,42.96
2023-05-09T07:14:42.882Z,44.43
2023-05-09T07:22:18.465Z,42.96
2023-05-09T07:29:55.242Z,42.71
2023-05-09T07:37:30.747Z,41.98
2023-05-09T07:45:06.309Z,41.45
2023-05-09T07:52:41.924Z,41.83
2023-05-09T08:00:16.656Z,41.33
2023-05-09T08:07:52.030Z,41.42
2023-05-09T08:15:26.160Z,39.46
2023-05-09T08:23:01.722Z,37.31
2023-05-09T08:30:35.977Z,37.17
2023-05-09T08:38:11.641Z,35.82
2023-05-09T08:45:48.628Z,34.42
2023-05-09T08:53:24.212Z,32.81
2023-05-09T09:00:59.458Z,33.52
2023-05-09T09:08:37.092Z,33.17
2023-05-09T09:16:15.528Z,32.31
2023-05-09T09:31:46.314Z,32.21
2023-05-09T09:39:22.153Z,31.98
2023-05-09T09:54:49.548Z,31.80
2023-05-09T10:02:25.497Z,30.61
2023-05-09T10:10:01.183Z,31.15
2023-05-09T10:17:35.560Z,31.57
2023-05-09T10:25:19.136Z,30.62
2023-05-09T10:32:55.267Z,31.26
2023-05-09T10:40:32.461Z,31.81
2023-05-09T10:48:09.056Z,31.24
2023-05-09T10:55:53.184Z,31.38
2023-05-09T11:03:28.806Z,31.34
2023-05-09T11:11:08.178Z,31.43
2023-05-09T11:18:53.625Z,31.84
2023-05-09T11:26:31.186Z,32.40
2023-05-09T11:34:06.992Z,31.34
2023-05-09T11:41:44.343Z,31.80
2023-05-09T11:49:19.708Z,31.71
2023-05-09T12:12:44.857Z,29.79
2023-05-09T12:20:18.909Z,28.79
2023-05-09T12:27:55.192Z,29.56
2023-05-09T12:35:29.210Z,30.01
2023-05-09T12:43:04.597Z,29.32
2023-05-09T12:50:38.503Z,29.48
2023-05-09T12:58:16.328Z,29.33
2023-05-09T13:05:56.403Z,30.06
2023-05-09T13:21:23.684Z,29.38
2023-05-09T13:28:59.279Z,29.22
2023-05-09T13:36:34.045Z,29.61
2023-05-09T13:44:09.409Z,29.77
2023-05-09T13:51:43.299Z,29.72
2023-05-09T13:59:18.735Z,28.41
2023-05-09T14:06:52.921Z,28.86
2023-05-09T14:14:28.489Z,29.12
2023-05-09T14:22:02.427Z,29.02
2023-05-09T14:37:31.430Z,29.18
2023-05-09T14:45:10.926Z,29.02
2023-05-09T14:52:44.911Z,28.96
2023-05-09T15:08:12.781Z,28.67
2023-05-09T15:15:48.350Z,28.73
2023-05-09T15:23:22.958Z,28.82
2023-05-09T15:31:00.029Z,28.85
2023-05-09T15:38:35.826Z,29.16
2023-05-09T15:46:11.179Z,28.77
2023-05-09T15:53:45.167Z,28.85
2023-05-09T16:01:21.270Z,29.37
2023-05-09T16:08:55.268Z,28.91
2023-05-09T16:16:30.656Z,29.58
2023-05-09T16:24:05.578Z,30.56
2023-05-09T16:31:41.198Z,30.23
2023-05-09T16:39:15.609Z,30.23
2023-05-09T16:46:50.988Z,30.95
2023-05-09T16:54:24.866Z,31.03
2023-05-09T17:02:00.425Z,31.60
2023-05-09T17:09:34.402Z,31.99
2023-05-09T17:17:09.669Z,32.43
2023-05-09T17:24:43.949Z,32.60
2023-05-09T17:32:19.438Z,33.01
2023-05-09T17:39:53.707Z,33.43
2023-05-09T17:47:29.371Z,34.00
2023-05-09T17:55:04.154Z,33.89
2023-05-09T18:02:39.761Z,34.55
2023-05-09T18:10:13.930Z,34.89
2023-05-09T18:17:49.853Z,35.21
2023-05-09T18:25:24.779Z,35.49
2023-05-09T18:33:01.507Z,35.51
2023-05-09T18:40:37.332Z,35.90
2023-05-09T18:48:13.563Z,36.06
2023-05-09T19:03:45.740Z,36.50
2023-05-09T19:11:20.137Z,36.41
2023-05-09T19:18:57.795Z,36.44
2023-05-09T19:26:31.737Z,36.41
2023-05-09T19:34:07.661Z,36.37
2023-05-09T19:41:41.829Z,36.28
2023-05-09T19:49:18.055Z,36.26
2023-05-09T19:56:52.184Z,36.42
2023-05-09T20:04:27.522Z,36.73
2023-05-09T20:12:03.666Z,36.78
2023-05-09T20:19:38.996Z,37.19
2023-05-09T20:27:12.936Z,37.53
2023-05-09T20:34:48.390Z,37.66
2023-05-09T20:42:23.242Z,37.82
2023-05-09T20:49:58.966Z,38.15
2023-05-09T20:57:33.390Z,38.78
2023-05-09T21:05:11.252Z,39.28
2023-05-09T21:12:45.480Z,39.88
2023-05-09T21:20:20.842Z,40.34
2023-05-09T21:27:54.735Z,40.76
2023-05-09T21:35:31.007Z,41.45
2023-05-09T21:50:58.327Z,42.49
2023-05-09T21:58:32.279Z,42.83
2023-05-09T22:06:08.251Z,43.58
2023-05-09T22:13:42.758Z,44.17
2023-05-09T22:21:18.150Z,44.55
2023-05-09T22:28:52.137Z,45.13
2023-05-09T22:36:27.780Z,45.79
2023-05-09T22:44:01.890Z,46.29
2023-05-09T22:51:37.316Z,46.62
2023-05-09T22:59:11.295Z,47.34
2023-05-09T23:06:46.832Z,47.91
2023-05-09T23:14:21.001Z,48.28
2023-05-09T23:21:58.617Z,48.62
2023-05-09T23:29:33.334Z,48.97
2023-05-09T23:37:08.771Z,49.27
2023-05-09T23:44:43.290Z,49.61
2023-05-09T23:52:18.567Z,49.75
2023-05-09T23:59:52.458Z,49.92
